SWA3522 KMYR-KBWI
Flight info
| Callsign | SWA3522 |
|---|---|
| Flight time | 1h 3m |
| Altitude | 39000 |
| Route | ZORDO Q111 RUKRR THHMP RAVNN8 |
| Aircraft | B737/M-SDE2E3FGHIRWXY/LB1 |
Departure
| Time | 2026-04-25 11:58 |
|---|---|
| Airport | Myrtle Beach International Airport (KMYR) |
Arrival
| Time | 2026-04-25 13:01 |
|---|---|
| Airport | Baltimore/Washington International Thurgood Marshall Airport (KBWI) |
| Time | Latitude | Longitude | Altitude | Speed | Heading |
|---|---|---|---|---|---|
| 2026-04-25 11:31 | 33.68253 | -78.92416 | 31 ft | 0 kts | 93° |
| 2026-04-25 11:46 | 33.68254 | -78.92430 | 31 ft | 4 kts | 88° |
| 2026-04-25 11:47 | 33.68249 | -78.92461 | 31 ft | 4 kts | 60° |
| 2026-04-25 11:47 | 33.68233 | -78.92479 | 28 ft | 4 kts | 360° |
| 2026-04-25 11:47 | 33.68224 | -78.92479 | 31 ft | 0 kts | 352° |
| 2026-04-25 11:47 | 33.68223 | -78.92479 | 31 ft | 0 kts | 352° |
| 2026-04-25 11:51 | 33.68224 | -78.92479 | 31 ft | 1 kts | 352° |
| 2026-04-25 11:52 | 33.68228 | -78.92491 | 29 ft | 3 kts | 270° |
| 2026-04-25 11:52 | 33.68202 | -78.92535 | 31 ft | 8 kts | 233° |
| 2026-04-25 11:52 | 33.68177 | -78.92595 | 30 ft | 8 kts | 261° |
| 2026-04-25 11:52 | 33.68175 | -78.92655 | 31 ft | 6 kts | 275° |
| 2026-04-25 11:53 | 33.68198 | -78.92682 | 31 ft | 5 kts | 340° |
| 2026-04-25 11:53 | 33.68240 | -78.92694 | 31 ft | 8 kts | 347° |
| 2026-04-25 11:53 | 33.68309 | -78.92712 | 31 ft | 12 kts | 349° |
| 2026-04-25 11:53 | 33.68397 | -78.92732 | 31 ft | 13 kts | 348° |
| 2026-04-25 11:54 | 33.68485 | -78.92754 | 31 ft | 13 kts | 348° |
| 2026-04-25 11:54 | 33.68570 | -78.92775 | 31 ft | 12 kts | 348° |
| 2026-04-25 11:54 | 33.68755 | -78.92820 | 31 ft | 15 kts | 349° |
| 2026-04-25 11:55 | 33.68857 | -78.92845 | 31 ft | 15 kts | 348° |
| 2026-04-25 11:55 | 33.68957 | -78.92856 | 31 ft | 14 kts | 9° |
| 2026-04-25 11:55 | 33.69052 | -78.92853 | 29 ft | 14 kts | 349° |
| 2026-04-25 11:55 | 33.69142 | -78.92876 | 31 ft | 13 kts | 347° |
| 2026-04-25 11:56 | 33.69227 | -78.92898 | 31 ft | 9 kts | 348° |
| 2026-04-25 11:56 | 33.69272 | -78.92928 | 31 ft | 7 kts | 300° |
| 2026-04-25 11:56 | 33.69266 | -78.92989 | 31 ft | 9 kts | 255° |
| 2026-04-25 11:56 | 33.69248 | -78.93080 | 31 ft | 12 kts | 258° |
| 2026-04-25 11:57 | 33.69210 | -78.93140 | 32 ft | 9 kts | 176° |
| 2026-04-25 11:57 | 33.69084 | -78.93108 | 32 ft | 46 kts | 168° |
| 2026-04-25 11:57 | 33.68530 | -78.92970 | 30 ft | 116 kts | 168° |
| 2026-04-25 11:57 | 33.67574 | -78.92730 | 203 ft | 153 kts | 168° |
| 2026-04-25 11:58 | 33.66518 | -78.92353 | 805 ft | 165 kts | 150° |
| 2026-04-25 11:58 | 33.65806 | -78.91254 | 1455 ft | 179 kts | 108° |
| 2026-04-25 11:58 | 33.65821 | -78.89676 | 1783 ft | 206 kts | 68° |
| 2026-04-25 11:58 | 33.66685 | -78.88232 | 2081 ft | 225 kts | 38° |
| 2026-04-25 11:59 | 33.67973 | -78.87018 | 2368 ft | 242 kts | 33° |
| 2026-04-25 11:59 | 33.69386 | -78.85813 | 2742 ft | 259 kts | 32° |
| 2026-04-25 11:59 | 33.70915 | -78.84526 | 3202 ft | 273 kts | 32° |
| 2026-04-25 12:00 | 33.74001 | -78.81906 | 4918 ft | 278 kts | 35° |
| 2026-04-25 12:00 | 33.75592 | -78.80544 | 5772 ft | 280 kts | 36° |
| 2026-04-25 12:00 | 33.78816 | -78.77768 | 7476 ft | 289 kts | 36° |
| 2026-04-25 12:01 | 33.80456 | -78.76349 | 8402 ft | 292 kts | 36° |
| 2026-04-25 12:01 | 33.82115 | -78.74911 | 9349 ft | 295 kts | 36° |
| 2026-04-25 12:01 | 33.83798 | -78.73449 | 10239 ft | 300 kts | 36° |
| 2026-04-25 12:01 | 33.85544 | -78.71932 | 10659 ft | 323 kts | 36° |
| 2026-04-25 12:02 | 33.89434 | -78.68544 | 11547 ft | 358 kts | 36° |
| 2026-04-25 12:02 | 33.91447 | -78.66790 | 12325 ft | 363 kts | 36° |
| 2026-04-25 12:02 | 33.93482 | -78.65014 | 13366 ft | 361 kts | 36° |
| 2026-04-25 12:03 | 33.95533 | -78.63224 | 14222 ft | 364 kts | 36° |
| 2026-04-25 12:03 | 33.97593 | -78.61424 | 15065 ft | 369 kts | 35° |
| 2026-04-25 12:03 | 33.99688 | -78.59593 | 15814 ft | 374 kts | 34° |
| 2026-04-25 12:03 | 34.01817 | -78.57732 | 16563 ft | 380 kts | 35° |
| 2026-04-25 12:04 | 34.03971 | -78.55849 | 17321 ft | 385 kts | 34° |
| 2026-04-25 12:04 | 34.06152 | -78.53939 | 18086 ft | 389 kts | 34° |
| 2026-04-25 12:04 | 34.08364 | -78.52001 | 18736 ft | 394 kts | 34° |
| 2026-04-25 12:04 | 34.10588 | -78.50051 | 19385 ft | 397 kts | 34° |
| 2026-04-25 12:05 | 34.12830 | -78.48083 | 20055 ft | 400 kts | 34° |
| 2026-04-25 12:05 | 34.15091 | -78.46097 | 20712 ft | 403 kts | 34° |
| 2026-04-25 12:05 | 34.17367 | -78.44098 | 21358 ft | 407 kts | 34° |
| 2026-04-25 12:05 | 34.19666 | -78.42076 | 22001 ft | 410 kts | 34° |
| 2026-04-25 12:06 | 34.21982 | -78.40038 | 22634 ft | 413 kts | 34° |
| 2026-04-25 12:06 | 34.24316 | -78.37983 | 22934 ft | 418 kts | 34° |
| 2026-04-25 12:06 | 34.26662 | -78.35915 | 22926 ft | 417 kts | 34° |
| 2026-04-25 12:06 | 34.28975 | -78.33875 | 22932 ft | 416 kts | 34° |
| 2026-04-25 12:07 | 34.31324 | -78.31802 | 22975 ft | 421 kts | 34° |
| 2026-04-25 12:07 | 34.33709 | -78.29697 | 23457 ft | 424 kts | 34° |
| 2026-04-25 12:07 | 34.36080 | -78.27601 | 24222 ft | 420 kts | 34° |
| 2026-04-25 12:07 | 34.38439 | -78.25514 | 24876 ft | 419 kts | 34° |
| 2026-04-25 12:08 | 34.40796 | -78.23428 | 25497 ft | 419 kts | 35° |
| 2026-04-25 12:08 | 34.43155 | -78.21338 | 26037 ft | 422 kts | 35° |
| 2026-04-25 12:08 | 34.45547 | -78.19219 | 26370 ft | 429 kts | 35° |
| 2026-04-25 12:08 | 34.47973 | -78.17069 | 26753 ft | 434 kts | 35° |
| 2026-04-25 12:09 | 34.50423 | -78.14895 | 27166 ft | 438 kts | 35° |
| 2026-04-25 12:09 | 34.52889 | -78.12705 | 27588 ft | 441 kts | 35° |
| 2026-04-25 12:09 | 34.55370 | -78.10499 | 28015 ft | 444 kts | 35° |
| 2026-04-25 12:09 | 34.57833 | -78.08307 | 28534 ft | 444 kts | 36° |
| 2026-04-25 12:10 | 34.60317 | -78.06095 | 29200 ft | 441 kts | 36° |
| 2026-04-25 12:10 | 34.62785 | -78.03896 | 29932 ft | 437 kts | 36° |
| 2026-04-25 12:10 | 34.65225 | -78.01720 | 30550 ft | 434 kts | 36° |
| 2026-04-25 12:10 | 34.67665 | -77.99544 | 30917 ft | 435 kts | 36° |
| 2026-04-25 12:11 | 34.72516 | -77.95210 | 30939 ft | 434 kts | 36° |
| 2026-04-25 12:11 | 34.77396 | -77.90844 | 30945 ft | 436 kts | 36° |
| 2026-04-25 12:12 | 34.81465 | -77.87199 | 30939 ft | 437 kts | 36° |
| 2026-04-25 12:12 | 34.87506 | -77.82703 | 30937 ft | 435 kts | 21° |
| 2026-04-25 12:13 | 34.93315 | -77.80875 | 30947 ft | 433 kts | 10° |
| 2026-04-25 12:13 | 34.99258 | -77.79619 | 30932 ft | 433 kts | 9° |
| 2026-04-25 12:14 | 35.05195 | -77.78352 | 30929 ft | 432 kts | 9° |
| 2026-04-25 12:14 | 35.11115 | -77.77044 | 30925 ft | 432 kts | 10° |
| 2026-04-25 12:15 | 35.17033 | -77.75717 | 30922 ft | 432 kts | 10° |
| 2026-04-25 12:15 | 35.22923 | -77.74392 | 30924 ft | 433 kts | 10° |
| 2026-04-25 12:16 | 35.28846 | -77.73058 | 30926 ft | 433 kts | 10° |
| 2026-04-25 12:16 | 35.34783 | -77.71720 | 30925 ft | 433 kts | 10° |
| 2026-04-25 12:17 | 35.40712 | -77.70382 | 30925 ft | 433 kts | 10° |
| 2026-04-25 12:17 | 35.46650 | -77.69040 | 30922 ft | 433 kts | 10° |
| 2026-04-25 12:18 | 35.52581 | -77.67697 | 30918 ft | 433 kts | 10° |
| 2026-04-25 12:18 | 35.58477 | -77.66360 | 30897 ft | 433 kts | 10° |
| 2026-04-25 12:19 | 35.67408 | -77.64589 | 30899 ft | 433 kts | 7° |
| 2026-04-25 12:20 | 35.73387 | -77.63584 | 30871 ft | 432 kts | 7° |
| 2026-04-25 12:20 | 35.76344 | -77.63079 | 30595 ft | 426 kts | 7° |
| 2026-04-25 12:20 | 35.79267 | -77.62571 | 30362 ft | 422 kts | 7° |
| 2026-04-25 12:20 | 35.82179 | -77.62059 | 30127 ft | 422 kts | 7° |
| 2026-04-25 12:21 | 35.85099 | -77.61543 | 29884 ft | 424 kts | 7° |
| 2026-04-25 12:21 | 35.87992 | -77.61029 | 29630 ft | 425 kts | 7° |
| 2026-04-25 12:21 | 35.90959 | -77.60501 | 29356 ft | 426 kts | 7° |
| 2026-04-25 12:21 | 35.93857 | -77.59984 | 29093 ft | 427 kts | 7° |
| 2026-04-25 12:22 | 35.96803 | -77.59458 | 28931 ft | 427 kts | 7° |
| 2026-04-25 12:22 | 36.02681 | -77.58409 | 28902 ft | 427 kts | 7° |
| 2026-04-25 12:23 | 36.08564 | -77.57358 | 28888 ft | 427 kts | 7° |
| 2026-04-25 12:23 | 36.14443 | -77.56304 | 28885 ft | 427 kts | 7° |
| 2026-04-25 12:24 | 36.19329 | -77.55429 | 28890 ft | 426 kts | 7° |
| 2026-04-25 12:24 | 36.26159 | -77.54203 | 28887 ft | 426 kts | 7° |
| 2026-04-25 12:25 | 36.31046 | -77.53324 | 28886 ft | 426 kts | 7° |
| 2026-04-25 12:25 | 36.36915 | -77.52267 | 28893 ft | 426 kts | 6° |
| 2026-04-25 12:26 | 36.42786 | -77.51209 | 28889 ft | 426 kts | 6° |
| 2026-04-25 12:26 | 36.48658 | -77.50148 | 28883 ft | 426 kts | 6° |
| 2026-04-25 12:27 | 36.54526 | -77.49087 | 28879 ft | 426 kts | 6° |
| 2026-04-25 12:27 | 36.60363 | -77.48038 | 28904 ft | 426 kts | 6° |
| 2026-04-25 12:28 | 36.66226 | -77.46986 | 28897 ft | 426 kts | 6° |
| 2026-04-25 12:28 | 36.72099 | -77.45930 | 28901 ft | 426 kts | 6° |
| 2026-04-25 12:29 | 36.77965 | -77.44873 | 28897 ft | 425 kts | 6° |
| 2026-04-25 12:29 | 36.83793 | -77.43821 | 28893 ft | 426 kts | 6° |
| 2026-04-25 12:30 | 36.89658 | -77.42760 | 28886 ft | 426 kts | 6° |
| 2026-04-25 12:30 | 36.95533 | -77.41697 | 28884 ft | 426 kts | 6° |
| 2026-04-25 12:31 | 37.01404 | -77.40632 | 28890 ft | 426 kts | 6° |
| 2026-04-25 12:31 | 37.07284 | -77.39564 | 28900 ft | 427 kts | 5° |
| 2026-04-25 12:32 | 37.13173 | -77.38493 | 28893 ft | 428 kts | 5° |
| 2026-04-25 12:32 | 37.19075 | -77.37417 | 28897 ft | 428 kts | 5° |
| 2026-04-25 12:33 | 37.24935 | -77.36348 | 28896 ft | 428 kts | 5° |
| 2026-04-25 12:33 | 37.30828 | -77.35271 | 28907 ft | 428 kts | 5° |
| 2026-04-25 12:34 | 37.36734 | -77.34189 | 28889 ft | 428 kts | 5° |
| 2026-04-25 12:34 | 37.42612 | -77.33110 | 28460 ft | 423 kts | 5° |
| 2026-04-25 12:34 | 37.44532 | -77.32757 | 28149 ft | 419 kts | 5° |
| 2026-04-25 12:35 | 37.48362 | -77.32053 | 27438 ft | 412 kts | 5° |
| 2026-04-25 12:35 | 37.51187 | -77.31497 | 26893 ft | 409 kts | 7° |
| 2026-04-25 12:35 | 37.53935 | -77.30848 | 26354 ft | 405 kts | 8° |
| 2026-04-25 12:35 | 37.56691 | -77.30159 | 25814 ft | 402 kts | 8° |
| 2026-04-25 12:36 | 37.59422 | -77.29476 | 25279 ft | 399 kts | 8° |
| 2026-04-25 12:36 | 37.62141 | -77.28807 | 24746 ft | 396 kts | 8° |
| 2026-04-25 12:36 | 37.64837 | -77.28154 | 24217 ft | 394 kts | 8° |
| 2026-04-25 12:36 | 37.67528 | -77.27508 | 23672 ft | 392 kts | 9° |
| 2026-04-25 12:37 | 37.70204 | -77.26866 | 23140 ft | 389 kts | 9° |
| 2026-04-25 12:37 | 37.72855 | -77.26215 | 23000 ft | 391 kts | 9° |
| 2026-04-25 12:37 | 37.75528 | -77.25526 | 22928 ft | 391 kts | 9° |
| 2026-04-25 12:37 | 37.78172 | -77.24834 | 22910 ft | 386 kts | 9° |
| 2026-04-25 12:38 | 37.80800 | -77.24146 | 22909 ft | 385 kts | 9° |
| 2026-04-25 12:38 | 37.83428 | -77.23460 | 22917 ft | 387 kts | 9° |
| 2026-04-25 12:38 | 37.86033 | -77.22783 | 22910 ft | 387 kts | 9° |
| 2026-04-25 12:38 | 37.88649 | -77.22104 | 22910 ft | 387 kts | 9° |
| 2026-04-25 12:39 | 37.91310 | -77.21413 | 22830 ft | 387 kts | 9° |
| 2026-04-25 12:39 | 37.93953 | -77.20726 | 22418 ft | 386 kts | 9° |
| 2026-04-25 12:39 | 37.96574 | -77.20044 | 22104 ft | 382 kts | 9° |
| 2026-04-25 12:39 | 37.99173 | -77.19367 | 21770 ft | 379 kts | 9° |
| 2026-04-25 12:40 | 38.01747 | -77.18696 | 21445 ft | 375 kts | 9° |
| 2026-04-25 12:40 | 38.04286 | -77.18034 | 21117 ft | 371 kts | 9° |
| 2026-04-25 12:40 | 38.06800 | -77.17378 | 20805 ft | 368 kts | 9° |
| 2026-04-25 12:40 | 38.09316 | -77.16722 | 20356 ft | 369 kts | 9° |
| 2026-04-25 12:41 | 38.11803 | -77.16073 | 19925 ft | 370 kts | 9° |
| 2026-04-25 12:41 | 38.14337 | -77.15410 | 19481 ft | 371 kts | 9° |
| 2026-04-25 12:41 | 38.16867 | -77.14747 | 19031 ft | 370 kts | 9° |
| 2026-04-25 12:41 | 38.19373 | -77.14090 | 18577 ft | 365 kts | 9° |
| 2026-04-25 12:42 | 38.21856 | -77.13439 | 18101 ft | 361 kts | 9° |
| 2026-04-25 12:42 | 38.23479 | -77.13013 | 17782 ft | 358 kts | 9° |
| 2026-04-25 12:42 | 38.26709 | -77.12165 | 17217 ft | 351 kts | 9° |
| 2026-04-25 12:42 | 38.29097 | -77.11539 | 16813 ft | 350 kts | 9° |
| 2026-04-25 12:43 | 38.31474 | -77.10914 | 16450 ft | 348 kts | 9° |
| 2026-04-25 12:43 | 38.33722 | -77.10324 | 16086 ft | 346 kts | 9° |
| 2026-04-25 12:43 | 38.38152 | -77.08334 | 15328 ft | 350 kts | 32° |
| 2026-04-25 12:44 | 38.40149 | -77.06553 | 14956 ft | 350 kts | 33° |
| 2026-04-25 12:44 | 38.42101 | -77.04764 | 14569 ft | 351 kts | 33° |
| 2026-04-25 12:44 | 38.46079 | -77.01147 | 13775 ft | 351 kts | 33° |
| 2026-04-25 12:45 | 38.48080 | -76.99350 | 13329 ft | 352 kts | 33° |
| 2026-04-25 12:45 | 38.50083 | -76.97561 | 12905 ft | 350 kts | 33° |
| 2026-04-25 12:45 | 38.54006 | -76.94059 | 12106 ft | 339 kts | 33° |
| 2026-04-25 12:46 | 38.55895 | -76.92275 | 11758 ft | 337 kts | 38° |
| 2026-04-25 12:46 | 38.57625 | -76.90268 | 11450 ft | 335 kts | 42° |
| 2026-04-25 12:46 | 38.59295 | -76.88199 | 11130 ft | 333 kts | 43° |
| 2026-04-25 12:46 | 38.60955 | -76.86137 | 10820 ft | 331 kts | 42° |
| 2026-04-25 12:47 | 38.62601 | -76.84114 | 10493 ft | 325 kts | 41° |
| 2026-04-25 12:47 | 38.64226 | -76.82141 | 10181 ft | 318 kts | 41° |
| 2026-04-25 12:47 | 38.65811 | -76.80232 | 9904 ft | 305 kts | 41° |
| 2026-04-25 12:47 | 38.67294 | -76.78449 | 9674 ft | 295 kts | 41° |
| 2026-04-25 12:48 | 38.68778 | -76.76668 | 9327 ft | 288 kts | 41° |
| 2026-04-25 12:48 | 38.70227 | -76.74919 | 9025 ft | 285 kts | 43° |
| 2026-04-25 12:48 | 38.71408 | -76.72870 | 8737 ft | 288 kts | 59° |
| 2026-04-25 12:48 | 38.72357 | -76.70606 | 8476 ft | 288 kts | 61° |
| 2026-04-25 12:49 | 38.73304 | -76.68328 | 8199 ft | 289 kts | 60° |
| 2026-04-25 12:49 | 38.74267 | -76.66064 | 7923 ft | 289 kts | 60° |
| 2026-04-25 12:49 | 38.75239 | -76.63808 | 7647 ft | 289 kts | 59° |
| 2026-04-25 12:49 | 38.76201 | -76.61588 | 7365 ft | 285 kts | 59° |
| 2026-04-25 12:50 | 38.77191 | -76.59388 | 7096 ft | 284 kts | 52° |
| 2026-04-25 12:50 | 38.78649 | -76.57752 | 6825 ft | 277 kts | 25° |
| 2026-04-25 12:50 | 38.80446 | -76.56995 | 6601 ft | 270 kts | 9° |
| 2026-04-25 12:50 | 38.82282 | -76.56509 | 6341 ft | 269 kts | 8° |
| 2026-04-25 12:51 | 38.84115 | -76.56044 | 6065 ft | 267 kts | 5° |
| 2026-04-25 12:51 | 38.85925 | -76.56139 | 5894 ft | 256 kts | 344° |
| 2026-04-25 12:51 | 38.87665 | -76.56629 | 5744 ft | 257 kts | 344° |
| 2026-04-25 12:51 | 38.89403 | -76.57111 | 5630 ft | 260 kts | 344° |
| 2026-04-25 12:52 | 38.91183 | -76.57595 | 5484 ft | 263 kts | 345° |
| 2026-04-25 12:52 | 38.92976 | -76.58078 | 5339 ft | 264 kts | 345° |
| 2026-04-25 12:52 | 38.94781 | -76.58559 | 5190 ft | 264 kts | 345° |
| 2026-04-25 12:52 | 38.96490 | -76.59272 | 5006 ft | 252 kts | 323° |
| 2026-04-25 12:53 | 38.97712 | -76.60766 | 4902 ft | 239 kts | 303° |
| 2026-04-25 12:53 | 38.98583 | -76.62571 | 4772 ft | 236 kts | 297° |
| 2026-04-25 12:53 | 38.99388 | -76.64428 | 4655 ft | 239 kts | 296° |
| 2026-04-25 12:53 | 39.00205 | -76.66304 | 4509 ft | 242 kts | 297° |
| 2026-04-25 12:54 | 39.01031 | -76.68179 | 4382 ft | 245 kts | 296° |
| 2026-04-25 12:54 | 39.01862 | -76.70051 | 4215 ft | 236 kts | 296° |
| 2026-04-25 12:54 | 39.02660 | -76.71839 | 4097 ft | 223 kts | 296° |
| 2026-04-25 12:54 | 39.03400 | -76.73495 | 4040 ft | 205 kts | 297° |
| 2026-04-25 12:55 | 39.04085 | -76.75010 | 4032 ft | 192 kts | 296° |
| 2026-04-25 12:55 | 39.04533 | -76.75999 | 4052 ft | 192 kts | 295° |
| 2026-04-25 12:55 | 39.05439 | -76.78007 | 4048 ft | 198 kts | 297° |
| 2026-04-25 12:55 | 39.06131 | -76.79548 | 4049 ft | 199 kts | 297° |
| 2026-04-25 12:56 | 39.06881 | -76.81045 | 4001 ft | 200 kts | 309° |
| 2026-04-25 12:56 | 39.08129 | -76.81853 | 3718 ft | 205 kts | 349° |
| 2026-04-25 12:56 | 39.09538 | -76.82206 | 3570 ft | 206 kts | 348° |
| 2026-04-25 12:56 | 39.10967 | -76.82487 | 3324 ft | 210 kts | 354° |
| 2026-04-25 12:57 | 39.12386 | -76.82695 | 3031 ft | 200 kts | 355° |
| 2026-04-25 12:57 | 39.13728 | -76.82887 | 2768 ft | 189 kts | 360° |
| 2026-04-25 12:57 | 39.15004 | -76.82777 | 2509 ft | 178 kts | 18° |
| 2026-04-25 12:57 | 39.16129 | -76.82217 | 2293 ft | 170 kts | 39° |
| 2026-04-25 12:58 | 39.17007 | -76.81278 | 2082 ft | 160 kts | 57° |
| 2026-04-25 12:58 | 39.17591 | -76.80096 | 1890 ft | 154 kts | 73° |
| 2026-04-25 12:58 | 39.17893 | -76.78823 | 1678 ft | 146 kts | 90° |
| 2026-04-25 12:58 | 39.17914 | -76.77525 | 1561 ft | 142 kts | 93° |
| 2026-04-25 12:59 | 39.17892 | -76.76310 | 1361 ft | 131 kts | 97° |
| 2026-04-25 12:59 | 39.17830 | -76.75181 | 1117 ft | 120 kts | 97° |
| 2026-04-25 12:59 | 39.17769 | -76.74134 | 927 ft | 120 kts | 95° |
| 2026-04-25 12:59 | 39.17711 | -76.73010 | 779 ft | 125 kts | 95° |
| 2026-04-25 13:00 | 39.17641 | -76.71894 | 638 ft | 124 kts | 95° |
| 2026-04-25 13:00 | 39.17618 | -76.71520 | 582 ft | 124 kts | 93° |
| 2026-04-25 13:00 | 39.17518 | -76.69687 | 309 ft | 118 kts | 94° |
| 2026-04-25 13:00 | 39.17455 | -76.68623 | 161 ft | 120 kts | 94° |
| 2026-04-25 13:01 | 39.17401 | -76.67665 | 149 ft | 90 kts | 94° |
| 2026-04-25 13:01 | 39.17367 | -76.67053 | 150 ft | 47 kts | 94° |
| 2026-04-25 13:01 | 39.17355 | -76.66819 | 152 ft | 5 kts | 93° |
| 2026-04-25 13:01 | 39.17351 | -76.66751 | 151 ft | 11 kts | 93° |
| 2026-04-25 13:02 | 39.17347 | -76.66653 | 155 ft | 11 kts | 93° |
| 2026-04-25 13:02 | 39.17373 | -76.66595 | 152 ft | 8 kts | 23° |
| 2026-04-25 13:02 | 39.17426 | -76.66589 | 153 ft | 8 kts | 358° |
| 2026-04-25 13:02 | 39.17453 | -76.66638 | 153 ft | 7 kts | 273° |
| 2026-04-25 13:03 | 39.17456 | -76.66706 | 154 ft | 8 kts | 274° |
| 2026-04-25 13:03 | 39.17461 | -76.66791 | 154 ft | 9 kts | 275° |
| 2026-04-25 13:03 | 39.17471 | -76.66826 | 154 ft | 4 kts | 309° |
| 2026-04-25 13:03 | 39.17507 | -76.66847 | 155 ft | 6 kts | 340° |
| 2026-04-25 13:04 | 39.17533 | -76.66886 | 155 ft | 6 kts | 282° |
| 2026-04-25 13:04 | 39.17541 | -76.66957 | 156 ft | 10 kts | 284° |
| 2026-04-25 13:04 | 39.17583 | -76.67036 | 155 ft | 11 kts | 323° |
| 2026-04-25 13:04 | 39.17646 | -76.67093 | 155 ft | 11 kts | 324° |
| 2026-04-25 13:05 | 39.17707 | -76.67150 | 155 ft | 11 kts | 324° |
| 2026-04-25 13:05 | 39.17767 | -76.67204 | 155 ft | 10 kts | 324° |
| 2026-04-25 13:05 | 39.17820 | -76.67226 | 155 ft | 6 kts | 28° |
| 2026-04-25 13:05 | 39.17846 | -76.67183 | 155 ft | 6 kts | 55° |
| 2026-04-25 13:06 | 39.17860 | -76.67157 | 155 ft | 2 kts | 54° |
| 2026-04-25 13:06 | 39.17861 | -76.67154 | 155 ft | 0 kts | 54° |